Time;durP1;ratioP1;P1;durP2;ratioP2;P2;SDS_P1;SDS_P2;PMS_P1;PMS_P2;Temp;Humidity;BMP_temperature;BMP_pressure;BME280_temperature;BME280_humidity;BME280_pressure;Samples;Min_cycle;Max_cycle;Signal;HPM_P1;HPM_P2
2022/01/04 00:02:20;;;;;;;37.53;33.70;;;;;;;;;;5127232;27;20023;-54
2022/01/04 00:04:46;;;;;;;32.65;27.92;;;;;;;;;;5127746;27;20011;-55
2022/01/04 00:07:11;;;;;;;34.65;31.00;;;;;;;;;;5126949;27;20386;-55
2022/01/04 00:09:40;;;;;;;41.90;37.22;;;;;;;;;;5126799;27;20060;-55
2022/01/04 00:14:50;;;;;;;49.75;34.65;;;;;;;;;;5126583;27;20130;-52
2022/01/04 00:17:16;;;;;;;37.92;33.35;;;;;;;;;;5127333;27;20102;-54
2022/01/04 00:19:41;;;;;;;38.45;34.45;;;;;;;;;;5126820;27;20549;-55
2022/01/04 00:22:08;;;;;;;45.55;34.00;;;;;;;;;;5126943;27;20038;-53
2022/01/04 00:24:33;;;;;;;37.63;31.75;;;;;;;;;;5127079;27;20039;-53
2022/01/04 00:26:58;;;;;;;32.60;29.23;;;;;;;;;;5126997;27;20482;-54
2022/01/04 00:29:24;;;;;;;38.55;30.08;;;;;;;;;;5125603;28;20106;-55
2022/01/04 00:31:52;;;;;;;31.40;26.63;;;;;;;;;;5124756;27;20038;-55
2022/01/04 00:34:17;;;;;;;37.50;27.30;;;;;;;;;;5127010;27;20027;-55
2022/01/04 00:36:42;;;;;;;29.13;26.30;;;;;;;;;;5127433;27;20026;-54
2022/01/04 00:39:07;;;;;;;31.55;28.05;;;;;;;;;;5125378;28;20592;-54
2022/01/04 00:41:34;;;;;;;32.10;27.38;;;;;;;;;;5125824;28;20019;-55
2022/01/04 00:43:59;;;;;;;30.45;27.10;;;;;;;;;;5126815;28;20021;-53
2022/01/04 00:46:24;;;;;;;29.42;23.40;;;;;;;;;;5125402;28;20101;-56
2022/01/04 00:51:34;;;;;;;27.42;24.55;;;;;;;;;;5125422;28;20030;-55
2022/01/04 00:53:59;;;;;;;21.30;19.00;;;;;;;;;;5127101;28;20016;-56
2022/01/04 00:56:24;;;;;;;21.77;19.52;;;;;;;;;;5126744;28;20560;-54
2022/01/04 00:58:50;;;;;;;32.00;28.65;;;;;;;;;;5125969;27;20041;-55
2022/01/04 01:01:15;;;;;;;40.45;30.85;;;;;;;;;;5126433;28;20110;-56
2022/01/04 01:03:41;;;;;;;33.58;27.98;;;;;;;;;;5126512;28;20019;-55
2022/01/04 01:06:07;;;;;;;34.03;27.33;;;;;;;;;;5125505;28;20034;-55
2022/01/04 01:08:33;;;;;;;31.67;27.40;;;;;;;;;;5126381;28;20027;-55
2022/01/04 01:10:58;;;;;;;37.75;30.90;;;;;;;;;;5126292;28;20031;-54
2022/01/04 01:13:24;;;;;;;31.95;20.65;;;;;;;;;;5126405;28;20496;-55
2022/01/04 01:15:49;;;;;;;23.10;19.77;;;;;;;;;;5125420;28;20015;-54
2022/01/04 01:18:16;;;;;;;26.85;21.85;;;;;;;;;;5126709;28;20083;-55
2022/01/04 01:20:41;;;;;;;26.05;21.40;;;;;;;;;;5124821;28;20516;-56
2022/01/04 01:23:07;;;;;;;27.65;21.55;;;;;;;;;;5126403;28;20027;-56
2022/01/04 01:25:32;;;;;;;16.95;14.77;;;;;;;;;;5125993;28;20026;-55
2022/01/04 01:27:58;;;;;;;25.73;16.52;;;;;;;;;;5125308;28;20015;-56
2022/01/04 01:30:24;;;;;;;24.33;20.05;;;;;;;;;;5125774;28;20030;-53
2022/01/04 01:32:51;;;;;;;27.13;20.00;;;;;;;;;;5125969;28;20038;-56
2022/01/04 01:35:16;;;;;;;27.85;19.63;;;;;;;;;;5127436;28;20030;-55
2022/01/04 01:37:41;;;;;;;24.85;21.08;;;;;;;;;;5126275;28;20023;-56
2022/01/04 01:40:07;;;;;;;21.30;19.20;;;;;;;;;;5125658;27;20023;-56
2022/01/04 01:42:32;;;;;;;35.38;31.92;;;;;;;;;;5125837;28;20015;-54
2022/01/04 01:44:58;;;;;;;28.35;25.30;;;;;;;;;;5128811;27;20007;-55
2022/01/04 01:47:23;;;;;;;32.20;24.42;;;;;;;;;;5129766;27;20428;-54
2022/01/04 01:49:49;;;;;;;29.25;26.35;;;;;;;;;;5129848;27;20054;-54
2022/01/04 01:52:14;;;;;;;29.08;24.67;;;;;;;;;;5127962;27;20905;-54
2022/01/04 01:54:40;;;;;;;30.00;26.17;;;;;;;;;;5129473;27;20051;-55
2022/01/04 01:57:05;;;;;;;32.63;26.30;;;;;;;;;;5128912;27;20053;-55
2022/01/04 01:59:30;;;;;;;25.83;23.20;;;;;;;;;;5129912;27;20072;-55
2022/01/04 02:01:56;;;;;;;22.83;16.35;;;;;;;;;;5127475;27;20034;-55
2022/01/04 02:04:22;;;;;;;16.20;14.48;;;;;;;;;;5129697;27;20072;-55
2022/01/04 02:06:47;;;;;;;18.98;15.57;;;;;;;;;;5128611;27;20045;-55
2022/01/04 02:09:12;;;;;;;15.82;13.35;;;;;;;;;;5130176;27;20023;-54
2022/01/04 02:11:38;;;;;;;18.55;15.95;;;;;;;;;;5126810;27;20015;-56
2022/01/04 02:14:03;;;;;;;17.45;14.82;;;;;;;;;;5128265;27;20023;-54
2022/01/04 02:16:29;;;;;;;23.45;17.88;;;;;;;;;;5129575;27;20098;-54
2022/01/04 02:19:01;;;;;;;19.63;14.43;;;;;;;;;;5129353;27;20015;-55
2022/01/04 02:21:26;;;;;;;26.90;16.95;;;;;;;;;;5128882;27;20027;-54
2022/01/04 02:23:51;;;;;;;18.35;15.68;;;;;;;;;;5128593;27;20400;-53
2022/01/04 02:26:17;;;;;;;18.20;16.40;;;;;;;;;;5128773;27;20088;-55
2022/01/04 02:28:43;;;;;;;13.40;12.13;;;;;;;;;;5128831;27;20030;-56
2022/01/04 02:31:08;;;;;;;13.75;12.27;;;;;;;;;;5128868;27;20039;-53
2022/01/04 02:33:33;;;;;;;22.60;14.15;;;;;;;;;;5127630;27;20106;-55
2022/01/04 02:35:58;;;;;;;15.48;11.80;;;;;;;;;;5129183;27;20557;-54
2022/01/04 02:38:24;;;;;;;12.75;10.50;;;;;;;;;;5126663;27;20027;-55
2022/01/04 02:40:49;;;;;;;15.02;11.05;;;;;;;;;;5128950;27;20049;-55
2022/01/04 02:43:14;;;;;;;21.33;9.65;;;;;;;;;;5128327;27;20011;-55
2022/01/04 02:45:40;;;;;;;12.95;9.82;;;;;;;;;;5128363;27;20023;-54
2022/01/04 02:48:05;;;;;;;13.88;9.90;;;;;;;;;;5128891;27;20103;-54
2022/01/04 02:50:30;;;;;;;13.88;10.15;;;;;;;;;;5127288;27;20031;-55
2022/01/04 02:52:56;;;;;;;12.25;8.25;;;;;;;;;;5128656;27;20121;-55
2022/01/04 02:55:21;;;;;;;8.43;7.63;;;;;;;;;;5127800;27;20027;-55
2022/01/04 02:57:47;;;;;;;11.05;8.90;;;;;;;;;;5127431;27;20015;-55
2022/01/04 03:00:14;;;;;;;18.23;8.50;;;;;;;;;;5128395;27;20030;-55
2022/01/04 03:02:39;;;;;;;15.32;8.15;;;;;;;;;;5126741;27;20015;-54
2022/01/04 03:05:05;;;;;;;13.60;9.02;;;;;;;;;;5128476;27;20022;-54
2022/01/04 03:07:31;;;;;;;19.58;14.05;;;;;;;;;;5128329;27;20019;-54
2022/01/04 03:09:56;;;;;;;11.23;9.90;;;;;;;;;;5128109;27;20409;-54
2022/01/04 03:12:22;;;;;;;10.20;8.25;;;;;;;;;;5127857;27;20026;-53
2022/01/04 03:14:50;;;;;;;11.35;8.65;;;;;;;;;;5128009;27;20114;-54
2022/01/04 03:17:15;;;;;;;9.52;6.63;;;;;;;;;;5128023;27;20477;-53
2022/01/04 03:19:41;;;;;;;7.97;5.90;;;;;;;;;;5127652;27;20058;-55
2022/01/04 03:22:09;;;;;;;9.15;6.22;;;;;;;;;;5108976;27;20023;-53
2022/01/04 03:24:34;;;;;;;6.90;4.93;;;;;;;;;;5127794;27;20031;-52
2022/01/04 03:27:00;;;;;;;14.77;6.38;;;;;;;;;;5128029;27;20023;-54
2022/01/04 03:29:28;;;;;;;11.82;6.07;;;;;;;;;;5127100;27;20019;-55
2022/01/04 03:31:55;;;;;;;10.93;8.15;;;;;;;;;;5128127;27;20077;-54
2022/01/04 03:34:20;;;;;;;11.68;8.68;;;;;;;;;;5127384;27;20031;-55
2022/01/04 03:36:45;;;;;;;5.60;5.05;;;;;;;;;;5127455;27;20089;-55
2022/01/04 03:39:11;;;;;;;12.63;11.13;;;;;;;;;;5127609;27;20573;-55
2022/01/04 03:41:38;;;;;;;12.18;9.52;;;;;;;;;;5127894;27;20030;-55
2022/01/04 03:44:05;;;;;;;12.45;10.13;;;;;;;;;;5127250;27;20692;-55
2022/01/04 03:46:30;;;;;;;22.05;11.98;;;;;;;;;;5125724;27;20039;-55
2022/01/04 03:48:55;;;;;;;15.90;8.57;;;;;;;;;;5126994;27;20081;-55
2022/01/04 03:51:22;;;;;;;10.77;9.50;;;;;;;;;;5122101;27;20149;-52
2022/01/04 03:53:47;;;;;;;9.40;8.13;;;;;;;;;;5126543;27;20030;-56
2022/01/04 03:56:12;;;;;;;7.75;6.93;;;;;;;;;;5127507;27;20027;-56
2022/01/04 03:58:38;;;;;;;8.23;6.22;;;;;;;;;;5126140;27;20030;-55
2022/01/04 04:01:12;;;;;;;9.73;7.28;;;;;;;;;;5125995;27;20102;-53
2022/01/04 04:03:37;;;;;;;7.43;5.15;;;;;;;;;;5126488;27;20050;-54
2022/01/04 04:06:05;;;;;;;5.68;4.03;;;;;;;;;;5127233;27;20042;-55
2022/01/04 04:08:30;;;;;;;11.60;3.53;;;;;;;;;;5125801;27;20019;-56
2022/01/04 04:10:56;;;;;;;7.82;3.03;;;;;;;;;;5126032;27;20363;-55
2022/01/04 04:13:21;;;;;;;3.38;3.03;;;;;;;;;;5126440;27;20332;-55
2022/01/04 04:15:46;;;;;;;5.50;3.22;;;;;;;;;;5127226;27;20100;-55
2022/01/04 04:18:13;;;;;;;6.47;3.28;;;;;;;;;;5127129;27;20067;-56
2022/01/04 04:20:39;;;;;;;8.55;5.88;;;;;;;;;;5125585;27;20095;-55
2022/01/04 04:23:05;;;;;;;6.85;5.30;;;;;;;;;;5127253;27;20015;-56
2022/01/04 04:25:30;;;;;;;9.30;6.53;;;;;;;;;;5126699;28;20027;-56
2022/01/04 04:27:56;;;;;;;7.45;4.93;;;;;;;;;;5127008;27;20555;-57
2022/01/04 04:30:21;;;;;;;5.68;3.95;;;;;;;;;;5125615;27;20015;-54
2022/01/04 04:32:47;;;;;;;8.00;4.20;;;;;;;;;;5126543;28;20106;-54
2022/01/04 04:35:12;;;;;;;12.05;5.43;;;;;;;;;;5125788;28;20386;-55
2022/01/04 04:37:38;;;;;;;4.32;3.58;;;;;;;;;;5126303;27;20019;-55
2022/01/04 04:40:04;;;;;;;8.48;3.88;;;;;;;;;;5126222;28;20037;-56
2022/01/04 04:42:29;;;;;;;5.45;3.17;;;;;;;;;;5125834;27;20019;-55
2022/01/04 04:44:54;;;;;;;5.57;3.42;;;;;;;;;;5126636;28;20020;-54
2022/01/04 04:47:20;;;;;;;8.85;3.25;;;;;;;;;;5127541;28;20115;-55
2022/01/04 04:49:45;;;;;;;7.93;4.65;;;;;;;;;;5123570;27;20019;-56
2022/01/04 04:52:10;;;;;;;4.63;2.90;;;;;;;;;;5125907;28;20038;-56
2022/01/04 04:54:36;;;;;;;12.20;3.45;;;;;;;;;;5125541;28;20099;-55
2022/01/04 04:57:01;;;;;;;6.82;4.95;;;;;;;;;;5125616;27;20038;-55
2022/01/04 04:59:26;;;;;;;8.10;5.70;;;;;;;;;;5126693;28;20019;-56
2022/01/04 05:01:52;;;;;;;11.30;5.82;;;;;;;;;;5126210;27;20086;-55
2022/01/04 05:04:18;;;;;;;6.47;4.82;;;;;;;;;;5126495;28;20030;-54
2022/01/04 05:06:43;;;;;;;11.63;4.68;;;;;;;;;;5126243;28;20126;-56
2022/01/04 05:09:09;;;;;;;10.77;5.63;;;;;;;;;;5125450;28;20029;-56
2022/01/04 05:11:36;;;;;;;4.85;3.70;;;;;;;;;;5107676;28;20474;-56
2022/01/04 05:14:02;;;;;;;8.77;4.63;;;;;;;;;;5124902;28;20031;-55
2022/01/04 05:16:27;;;;;;;9.32;3.80;;;;;;;;;;5126418;28;20015;-56
2022/01/04 05:18:54;;;;;;;7.20;4.78;;;;;;;;;;5126232;27;20415;-56
2022/01/04 05:21:19;;;;;;;7.63;4.00;;;;;;;;;;5130309;27;20019;-56
2022/01/04 05:23:44;;;;;;;4.53;3.08;;;;;;;;;;5130070;27;20103;-55
2022/01/04 05:26:10;;;;;;;6.35;4.03;;;;;;;;;;5128299;27;20034;-56
2022/01/04 05:28:35;;;;;;;3.92;3.05;;;;;;;;;;5129666;27;20019;-56
2022/01/04 05:31:00;;;;;;;3.63;2.40;;;;;;;;;;5129790;27;20030;-53
2022/01/04 05:33:26;;;;;;;5.00;3.72;;;;;;;;;;5131135;27;20047;-56
2022/01/04 05:35:53;;;;;;;10.40;2.97;;;;;;;;;;5130572;27;20581;-56
2022/01/04 05:38:19;;;;;;;4.90;3.10;;;;;;;;;;5124096;27;20394;-54
2022/01/04 05:40:44;;;;;;;5.78;4.15;;;;;;;;;;5128283;27;20015;-55
2022/01/04 05:43:10;;;;;;;6.95;4.32;;;;;;;;;;5129243;27;20083;-54
2022/01/04 05:45:35;;;;;;;5.78;4.55;;;;;;;;;;5128532;27;20022;-55
2022/01/04 05:48:00;;;;;;;6.35;3.67;;;;;;;;;;5129702;27;20026;-56
2022/01/04 05:50:26;;;;;;;5.00;3.53;;;;;;;;;;5128437;27;20015;-56
2022/01/04 05:52:51;;;;;;;16.63;6.00;;;;;;;;;;5126724;27;20039;-55
2022/01/04 05:55:16;;;;;;;9.73;5.18;;;;;;;;;;5129339;27;20752;-55
2022/01/04 05:57:42;;;;;;;10.45;8.15;;;;;;;;;;5128527;27;20481;-56
2022/01/04 06:00:08;;;;;;;5.88;4.10;;;;;;;;;;5129414;27;20038;-55
2022/01/04 06:02:33;;;;;;;8.18;4.07;;;;;;;;;;5129680;27;20114;-55
2022/01/04 06:04:58;;;;;;;6.13;5.05;;;;;;;;;;5126347;27;20083;-56
2022/01/04 06:07:24;;;;;;;6.93;4.80;;;;;;;;;;5129227;27;20072;-56
2022/01/04 06:09:52;;;;;;;7.75;3.63;;;;;;;;;;5128429;27;20039;-55
2022/01/04 06:14:57;;;;;;;5.13;4.13;;;;;;;;;;5128167;27;20537;-56
2022/01/04 06:17:27;;;;;;;6.75;4.47;;;;;;;;;;5127699;27;20027;-57
2022/01/04 06:19:55;;;;;;;10.02;6.10;;;;;;;;;;5128890;27;20054;-57
2022/01/04 06:22:21;;;;;;;10.05;8.75;;;;;;;;;;5129005;27;20057;-55
2022/01/04 06:24:46;;;;;;;6.72;5.10;;;;;;;;;;5128794;27;20056;-54
2022/01/04 06:27:11;;;;;;;9.00;4.45;;;;;;;;;;5129355;27;20027;-56
2022/01/04 06:29:37;;;;;;;13.52;5.80;;;;;;;;;;5128129;27;20101;-56
2022/01/04 06:32:04;;;;;;;5.40;4.43;;;;;;;;;;5128572;27;20019;-56
2022/01/04 06:34:29;;;;;;;11.15;5.53;;;;;;;;;;5109885;27;20027;-55
2022/01/04 06:36:54;;;;;;;7.75;4.93;;;;;;;;;;5128303;27;20027;-53
2022/01/04 06:39:20;;;;;;;7.65;4.65;;;;;;;;;;5127977;27;20018;-55
2022/01/04 06:41:45;;;;;;;8.45;6.80;;;;;;;;;;5127468;27;20038;-55
2022/01/04 06:44:11;;;;;;;7.53;5.57;;;;;;;;;;5128809;27;20127;-55
2022/01/04 06:46:38;;;;;;;6.40;5.43;;;;;;;;;;5128450;27;20109;-55
2022/01/04 06:49:03;;;;;;;11.95;7.20;;;;;;;;;;5129099;27;20030;-54
2022/01/04 06:51:29;;;;;;;3.92;3.42;;;;;;;;;;5127989;27;20683;-54
2022/01/04 06:53:54;;;;;;;9.55;4.70;;;;;;;;;;5127522;27;20371;-53
2022/01/04 06:56:19;;;;;;;7.03;4.32;;;;;;;;;;5127274;27;20153;-55
2022/01/04 06:58:45;;;;;;;6.90;5.15;;;;;;;;;;5127324;27;20027;-55
2022/01/04 07:01:10;;;;;;;10.15;5.47;;;;;;;;;;5126380;27;20060;-52
2022/01/04 07:03:35;;;;;;;12.85;5.53;;;;;;;;;;5128498;27;20023;-53
2022/01/04 07:06:00;;;;;;;22.35;6.93;;;;;;;;;;5128637;27;20289;-55
2022/01/04 07:08:26;;;;;;;6.97;4.38;;;;;;;;;;5127399;27;20512;-56
2022/01/04 07:10:51;;;;;;;7.97;4.35;;;;;;;;;;5128207;27;20036;-56
2022/01/04 07:13:17;;;;;;;6.82;5.68;;;;;;;;;;5127308;27;20079;-57
2022/01/04 07:15:43;;;;;;;7.65;3.97;;;;;;;;;;5127624;27;20072;-56
2022/01/04 07:18:08;;;;;;;17.50;7.22;;;;;;;;;;5127951;27;20086;-56
2022/01/04 07:20:34;;;;;;;13.05;9.25;;;;;;;;;;5127272;27;20084;-57
2022/01/04 07:22:59;;;;;;;11.05;8.10;;;;;;;;;;5127080;27;20023;-56
2022/01/04 07:25:24;;;;;;;23.13;15.73;;;;;;;;;;5125709;27;20053;-54
2022/01/04 07:27:50;;;;;;;11.65;9.40;;;;;;;;;;5127668;27;20051;-52
2022/01/04 07:30:15;;;;;;;15.88;10.75;;;;;;;;;;5126298;27;20007;-55
2022/01/04 07:32:41;;;;;;;9.05;7.38;;;;;;;;;;5127354;27;20084;-55
2022/01/04 07:35:13;;;;;;;13.75;10.25;;;;;;;;;;5126859;27;20039;-56
2022/01/04 07:37:39;;;;;;;11.75;10.65;;;;;;;;;;5125724;27;20015;-55
2022/01/04 07:40:05;;;;;;;15.48;8.90;;;;;;;;;;5126938;27;20080;-55
2022/01/04 07:42:31;;;;;;;25.35;12.35;;;;;;;;;;5113883;27;20111;-53
2022/01/04 07:44:56;;;;;;;39.25;10.93;;;;;;;;;;5118321;27;20027;-54
2022/01/04 07:47:22;;;;;;;20.85;12.85;;;;;;;;;;5123524;27;20015;-55
2022/01/04 07:49:47;;;;;;;16.70;13.60;;;;;;;;;;5124957;27;20035;-53
2022/01/04 07:52:12;;;;;;;16.75;15.05;;;;;;;;;;5123984;27;20129;-53
2022/01/04 07:54:38;;;;;;;27.77;12.57;;;;;;;;;;5124626;27;20023;-54
2022/01/04 07:57:03;;;;;;;15.38;11.35;;;;;;;;;;5124376;27;20022;-56
2022/01/04 07:59:30;;;;;;;18.50;15.82;;;;;;;;;;5124524;27;20026;-54
2022/01/04 08:01:55;;;;;;;19.77;14.57;;;;;;;;;;5125167;27;20028;-55
2022/01/04 08:04:21;;;;;;;43.35;19.63;;;;;;;;;;5124524;27;20031;-54
2022/01/04 08:06:46;;;;;;;19.00;17.08;;;;;;;;;;5123912;27;20023;-54
2022/01/04 08:09:11;;;;;;;32.85;19.27;;;;;;;;;;5123993;27;20526;-55
2022/01/04 08:11:37;;;;;;;23.98;16.98;;;;;;;;;;5123534;27;20023;-56
2022/01/04 08:14:02;;;;;;;19.58;17.42;;;;;;;;;;5124253;27;20336;-56
2022/01/04 08:16:27;;;;;;;23.88;19.92;;;;;;;;;;5125063;27;20026;-56
2022/01/04 08:18:53;;;;;;;24.88;22.20;;;;;;;;;;5116987;27;20039;-57
2022/01/04 08:21:18;;;;;;;38.20;23.17;;;;;;;;;;5122632;27;20820;-55
2022/01/04 08:23:44;;;;;;;25.05;21.63;;;;;;;;;;5124979;27;20466;-57
2022/01/04 08:26:09;;;;;;;24.33;21.73;;;;;;;;;;5125185;27;20026;-58
2022/01/04 08:28:34;;;;;;;28.50;21.52;;;;;;;;;;5124300;27;20019;-56
2022/01/04 08:31:00;;;;;;;29.00;25.52;;;;;;;;;;5123915;27;20393;-56
2022/01/04 08:33:25;;;;;;;42.38;25.75;;;;;;;;;;5124875;27;20107;-56
2022/01/04 08:35:50;;;;;;;30.63;26.35;;;;;;;;;;5124928;28;20107;-53
2022/01/04 08:38:16;;;;;;;33.13;26.77;;;;;;;;;;5124187;27;20020;-52
2022/01/04 08:40:41;;;;;;;40.28;32.65;;;;;;;;;;5123625;28;20067;-55
2022/01/04 08:43:07;;;;;;;65.25;46.53;;;;;;;;;;5122889;28;20450;-57
2022/01/04 08:45:33;;;;;;;51.88;42.53;;;;;;;;;;5124358;27;20019;-56
2022/01/04 08:47:59;;;;;;;52.60;45.60;;;;;;;;;;5126175;27;20015;-62
2022/01/04 08:50:24;;;;;;;66.95;42.25;;;;;;;;;;5125355;28;20045;-62
2022/01/04 08:52:51;;;;;;;77.72;47.15;;;;;;;;;;5124794;27;20459;-60
2022/01/04 08:55:17;;;;;;;55.35;44.97;;;;;;;;;;5129448;27;20011;-63
2022/01/04 08:57:42;;;;;;;68.20;47.58;;;;;;;;;;5109337;27;20022;-61
2022/01/04 09:00:09;;;;;;;61.22;42.55;;;;;;;;;;5130205;27;20027;-63
2022/01/04 09:02:34;;;;;;;63.20;41.85;;;;;;;;;;5129657;27;20633;-63
2022/01/04 09:05:00;;;;;;;91.68;42.90;;;;;;;;;;5129424;27;20016;-63
2022/01/04 09:07:26;;;;;;;58.78;37.17;;;;;;;;;;5128195;27;20101;-63
2022/01/04 09:09:51;;;;;;;60.90;34.17;;;;;;;;;;5128340;27;20708;-62
2022/01/04 09:12:19;;;;;;;46.03;28.45;;;;;;;;;;5129605;27;20095;-64
2022/01/04 09:20:03;;;;;;;33.67;25.00;;;;;;;;;;5127110;27;20123;-73
2022/01/04 09:22:28;;;;;;;37.30;20.30;;;;;;;;;;5128881;27;20376;-74
2022/01/04 09:24:53;;;;;;;40.65;25.00;;;;;;;;;;5128773;27;20019;-72
2022/01/04 09:27:19;;;;;;;58.33;40.22;;;;;;;;;;5129562;27;20098;-72
2022/01/04 09:29:44;;;;;;;38.25;26.90;;;;;;;;;;5128452;27;20482;-67
2022/01/04 09:32:13;;;;;;;34.05;20.58;;;;;;;;;;5125142;27;20131;-68
2022/01/04 09:34:39;;;;;;;21.27;16.05;;;;;;;;;;5129099;27;20019;-67
2022/01/04 09:37:04;;;;;;;10.68;9.32;;;;;;;;;;5129031;27;20023;-56
2022/01/04 09:39:29;;;;;;;16.00;10.38;;;;;;;;;;5129311;27;20080;-71
2022/01/04 09:41:59;;;;;;;26.10;18.95;;;;;;;;;;5127091;27;20027;-60
2022/01/04 09:44:27;;;;;;;32.63;16.92;;;;;;;;;;5127557;27;20011;-60
2022/01/04 09:46:55;;;;;;;33.30;19.67;;;;;;;;;;5129874;27;20463;-70
2022/01/04 09:49:21;;;;;;;24.42;20.73;;;;;;;;;;5129554;27;20073;-64
2022/01/04 09:51:47;;;;;;;20.40;17.50;;;;;;;;;;5127982;27;20448;-68
2022/01/04 09:54:16;;;;;;;24.05;14.57;;;;;;;;;;5128699;27;20159;-70
2022/01/04 09:56:42;;;;;;;26.23;19.33;;;;;;;;;;5129799;27;20023;-69
2022/01/04 09:59:07;;;;;;;25.20;18.40;;;;;;;;;;5126350;27;20026;-64
2022/01/04 10:01:34;;;;;;;21.73;19.42;;;;;;;;;;5129202;27;20382;-72
2022/01/04 10:04:00;;;;;;;26.40;19.15;;;;;;;;;;5127371;27;20111;-66
2022/01/04 10:06:26;;;;;;;33.38;21.73;;;;;;;;;;5127842;27;20023;-71
2022/01/04 10:08:51;;;;;;;29.02;22.65;;;;;;;;;;5129645;27;20031;-67
2022/01/04 10:11:27;;;;;;;28.80;19.67;;;;;;;;;;5130435;27;20049;-69
2022/01/04 10:13:52;;;;;;;20.15;11.45;;;;;;;;;;5126878;27;20034;-67
2022/01/04 10:16:18;;;;;;;21.63;18.20;;;;;;;;;;5128998;27;20023;-67
2022/01/04 10:18:46;;;;;;;15.43;13.90;;;;;;;;;;5129402;27;20062;-70
2022/01/04 10:21:13;;;;;;;27.02;14.98;;;;;;;;;;5129060;27;20414;-68
2022/01/04 10:23:44;;;;;;;30.77;18.98;;;;;;;;;;5128006;27;20015;-69
2022/01/04 10:26:09;;;;;;;23.80;15.98;;;;;;;;;;5124295;27;20019;-69
2022/01/04 10:28:36;;;;;;;29.48;17.15;;;;;;;;;;5127984;27;20084;-67
2022/01/04 10:31:05;;;;;;;28.73;18.10;;;;;;;;;;5128741;27;20114;-64
2022/01/04 10:33:31;;;;;;;20.48;14.68;;;;;;;;;;5124383;27;20604;-68
2022/01/04 10:35:57;;;;;;;102.15;50.80;;;;;;;;;;5128663;27;20046;-71
2022/01/04 10:38:24;;;;;;;61.15;40.78;;;;;;;;;;5126079;27;20019;-76
2022/01/04 10:40:51;;;;;;;52.00;29.83;;;;;;;;;;5127830;27;20023;-76
2022/01/04 10:43:16;;;;;;;28.30;20.48;;;;;;;;;;5126321;27;20011;-76
2022/01/04 10:45:42;;;;;;;33.08;21.70;;;;;;;;;;5128418;27;20363;-74
2022/01/04 10:48:09;;;;;;;31.38;18.13;;;;;;;;;;5127452;27;20034;-73
2022/01/04 10:50:35;;;;;;;42.83;23.27;;;;;;;;;;5128027;27;20060;-73
2022/01/04 10:53:01;;;;;;;35.08;22.00;;;;;;;;;;5128262;27;20038;-74
2022/01/04 10:55:30;;;;;;;36.65;23.40;;;;;;;;;;5124474;27;20023;-74
2022/01/04 10:57:55;;;;;;;29.48;20.40;;;;;;;;;;5124523;27;20011;-74
2022/01/04 11:00:22;;;;;;;60.45;21.10;;;;;;;;;;5127708;27;20657;-73
2022/01/04 11:02:47;;;;;;;44.55;18.77;;;;;;;;;;5128006;27;20023;-72
2022/01/04 11:05:14;;;;;;;29.35;19.58;;;;;;;;;;5123117;27;20160;-61
2022/01/04 11:07:57;;;;;;;40.55;18.38;;;;;;;;;;5127400;27;20004;-61
2022/01/04 11:10:23;;;;;;;34.95;17.65;;;;;;;;;;5126894;27;20038;-61
2022/01/04 11:12:49;;;;;;;23.58;16.63;;;;;;;;;;5127906;27;20050;-61
2022/01/04 11:15:14;;;;;;;35.13;19.63;;;;;;;;;;5124921;27;20034;-62
2022/01/04 11:17:40;;;;;;;29.90;17.73;;;;;;;;;;5127833;27;20079;-61
2022/01/04 11:20:05;;;;;;;38.47;23.35;;;;;;;;;;5127764;27;20132;-61
2022/01/04 11:22:31;;;;;;;99.15;52.92;;;;;;;;;;5128191;27;20023;-63
2022/01/04 11:24:57;;;;;;;26.70;15.77;;;;;;;;;;5128326;27;20015;-62
2022/01/04 11:27:22;;;;;;;27.27;14.95;;;;;;;;;;5127717;27;20030;-62
2022/01/04 11:29:48;;;;;;;8.35;7.28;;;;;;;;;;5127128;27;20022;-62
2022/01/04 11:32:16;;;;;;;15.68;9.63;;;;;;;;;;5126717;27;20458;-61
2022/01/04 11:34:59;;;;;;;16.95;11.75;;;;;;;;;;5127034;27;20026;-61
2022/01/04 11:37:25;;;;;;;15.63;10.38;;;;;;;;;;5127704;27;20023;-61
2022/01/04 11:39:52;;;;;;;28.25;8.63;;;;;;;;;;5127233;27;20026;-61
2022/01/04 11:42:38;;;;;;;21.55;10.13;;;;;;;;;;5127791;27;20042;-61
2022/01/04 11:45:07;;;;;;;13.88;7.00;;;;;;;;;;5127226;27;20018;-61
2022/01/04 11:47:34;;;;;;;8.20;5.30;;;;;;;;;;5126361;27;20090;-61
2022/01/04 11:50:20;;;;;;;12.93;6.47;;;;;;;;;;5125664;27;20015;-61
2022/01/04 11:52:47;;;;;;;9.10;4.85;;;;;;;;;;5126969;27;20018;-61
2022/01/04 11:55:26;;;;;;;20.85;13.60;;;;;;;;;;5124335;27;20099;-64
2022/01/04 11:57:53;;;;;;;13.32;5.60;;;;;;;;;;5123616;27;20691;-63
2022/01/04 12:00:30;;;;;;;16.65;10.07;;;;;;;;;;5126514;27;20030;-70
2022/01/04 12:03:01;;;;;;;7.30;5.43;;;;;;;;;;5126509;27;20027;-75
2022/01/04 12:05:27;;;;;;;17.75;8.73;;;;;;;;;;5126813;27;20015;-76
2022/01/04 12:07:52;;;;;;;14.80;9.27;;;;;;;;;;5126216;27;20106;-73
2022/01/04 12:10:17;;;;;;;16.75;9.32;;;;;;;;;;5126683;27;20541;-73
2022/01/04 12:12:58;;;;;;;27.65;9.07;;;;;;;;;;5125089;27;20019;-75
2022/01/04 12:15:33;;;;;;;18.25;8.68;;;;;;;;;;5126771;27;20411;-76
2022/01/04 12:18:02;;;;;;;9.70;7.50;;;;;;;;;;5125607;27;20023;-73
2022/01/04 12:20:42;;;;;;;13.70;10.43;;;;;;;;;;5125895;27;20047;-68
2022/01/04 12:23:26;;;;;;;12.15;10.15;;;;;;;;;;5125545;27;20083;-74
2022/01/04 12:26:14;;;;;;;17.13;9.20;;;;;;;;;;5125322;27;20474;-76
2022/01/04 12:28:39;;;;;;;11.32;6.82;;;;;;;;;;5123109;27;20106;-66
2022/01/04 12:31:15;;;;;;;15.98;9.02;;;;;;;;;;5126670;27;20589;-71
2022/01/04 12:33:42;;;;;;;20.83;13.05;;;;;;;;;;5125228;27;20045;-72
2022/01/04 12:36:08;;;;;;;19.30;14.00;;;;;;;;;;5126124;27;20042;-62
2022/01/04 12:38:34;;;;;;;15.93;9.88;;;;;;;;;;5125855;28;20466;-64
2022/01/04 12:41:01;;;;;;;22.00;15.32;;;;;;;;;;5126687;28;20539;-67
2022/01/04 12:43:27;;;;;;;21.27;13.95;;;;;;;;;;5126841;28;20019;-63
2022/01/04 12:45:56;;;;;;;23.77;13.50;;;;;;;;;;5107743;28;20522;-64
2022/01/04 12:48:41;;;;;;;21.95;8.23;;;;;;;;;;5126063;28;20015;-67
2022/01/04 12:51:25;;;;;;;12.52;7.03;;;;;;;;;;5125308;28;20363;-66
2022/01/04 12:53:51;;;;;;;10.70;5.15;;;;;;;;;;5126501;28;20112;-63
2022/01/04 12:56:16;;;;;;;9.75;5.45;;;;;;;;;;5126742;28;20027;-69
2022/01/04 12:58:42;;;;;;;11.48;5.95;;;;;;;;;;5125561;28;20038;-67
2022/01/04 13:01:07;;;;;;;15.55;7.20;;;;;;;;;;5126285;28;20079;-61
2022/01/04 13:03:32;;;;;;;14.10;7.57;;;;;;;;;;5126098;28;20445;-62
2022/01/04 13:05:59;;;;;;;12.88;7.63;;;;;;;;;;5125554;28;20015;-66
2022/01/04 13:08:26;;;;;;;21.05;9.85;;;;;;;;;;5126845;27;20018;-67
2022/01/04 13:11:01;;;;;;;7.53;4.20;;;;;;;;;;5125276;27;20068;-67
2022/01/04 13:13:26;;;;;;;14.82;9.40;;;;;;;;;;5105117;28;20068;-66
2022/01/04 13:15:52;;;;;;;16.38;10.25;;;;;;;;;;5126040;28;20517;-65
2022/01/04 13:18:25;;;;;;;16.85;12.07;;;;;;;;;;5126143;28;20069;-64
2022/01/04 13:20:50;;;;;;;14.00;7.78;;;;;;;;;;5125413;28;20084;-66
2022/01/04 13:23:18;;;;;;;16.35;7.47;;;;;;;;;;5125358;28;20027;-69
2022/01/04 13:25:43;;;;;;;15.10;7.82;;;;;;;;;;5124702;28;20023;-64
2022/01/04 13:28:09;;;;;;;11.77;6.68;;;;;;;;;;5125807;28;20012;-63
2022/01/04 13:30:40;;;;;;;16.73;10.30;;;;;;;;;;5126380;28;20023;-65
2022/01/04 13:33:09;;;;;;;;;;;;;;;;;;5126347;28;20023;-64
2022/01/04 13:35:37;;;;;;;8.98;6.32;;;;;;;;;;5124428;27;20159;-65
2022/01/04 13:38:04;;;;;;;4.68;3.28;;;;;;;;;;5124543;28;20031;-69
2022/01/04 13:40:30;;;;;;;9.15;4.28;;;;;;;;;;5127379;27;20130;-73
2022/01/04 13:43:01;;;;;;;10.90;5.13;;;;;;;;;;5129499;27;20023;-72
2022/01/04 13:45:26;;;;;;;14.90;9.10;;;;;;;;;;5129437;27;20023;-71
2022/01/04 13:47:55;;;;;;;7.47;3.90;;;;;;;;;;5129718;27;20042;-69
2022/01/04 13:50:34;;;;;;;19.52;7.68;;;;;;;;;;5129399;27;20015;-64
2022/01/04 13:53:05;;;;;;;11.85;6.15;;;;;;;;;;5129513;27;20090;-66
2022/01/04 13:55:47;;;;;;;10.90;6.60;;;;;;;;;;5128431;27;20024;-65
2022/01/04 13:58:32;;;;;;;18.20;6.70;;;;;;;;;;5125865;27;20070;-61
2022/01/04 14:00:57;;;;;;;5.40;2.53;;;;;;;;;;5128066;27;20027;-61
2022/01/04 14:03:26;;;;;;;7.82;4.88;;;;;;;;;;5129021;27;20018;-59
2022/01/04 14:05:52;;;;;;;11.55;8.68;;;;;;;;;;5125171;27;20612;-75
2022/01/04 14:08:17;;;;;;;20.52;9.85;;;;;;;;;;5129536;27;20027;-71
2022/01/04 14:10:54;;;;;;;12.85;6.68;;;;;;;;;;5127231;27;20076;-67
2022/01/04 14:13:29;;;;;;;6.88;3.40;;;;;;;;;;5128574;27;20026;-68
2022/01/04 14:16:05;;;;;;;7.18;2.92;;;;;;;;;;5127836;27;20067;-68
2022/01/04 14:18:30;;;;;;;6.97;5.30;;;;;;;;;;5128282;27;20131;-69
2022/01/04 14:20:56;;;;;;;8.60;6.15;;;;;;;;;;5128692;27;20039;-68
2022/01/04 14:23:36;;;;;;;10.23;7.55;;;;;;;;;;5128415;27;20011;-68
2022/01/04 14:26:04;;;;;;;8.70;5.32;;;;;;;;;;5129606;27;20504;-68
2022/01/04 14:28:29;;;;;;;14.38;7.60;;;;;;;;;;5129304;27;20015;-68
2022/01/04 14:30:55;;;;;;;10.13;6.82;;;;;;;;;;5129372;27;20034;-68
2022/01/04 14:33:20;;;;;;;11.80;3.28;;;;;;;;;;5129600;27;20015;-67
2022/01/04 14:35:45;;;;;;;9.00;6.75;;;;;;;;;;5129059;27;20018;-67
2022/01/04 14:38:11;;;;;;;16.02;7.28;;;;;;;;;;5129158;27;20494;-67